sensor_id;sensor_type;location;lat;lon;timestamp;P1;durP1;ratioP1;P2;durP2;ratioP2
23567;SDS011;11962;50.838;4.430;2023-04-24T00:00:43;24.88;;;11.80;;
23567;SDS011;11962;50.838;4.430;2023-04-24T00:03:10;19.65;;;10.82;;
23567;SDS011;11962;50.838;4.430;2023-04-24T00:05:36;16.73;;;11.50;;
23567;SDS011;11962;50.838;4.430;2023-04-24T00:08:02;18.52;;;10.77;;
23567;SDS011;11962;50.838;4.430;2023-04-24T00:10:27;24.80;;;11.40;;
23567;SDS011;11962;50.838;4.430;2023-04-24T00:12:53;20.30;;;10.95;;
23567;SDS011;11962;50.838;4.430;2023-04-24T00:15:19;20.98;;;11.68;;
23567;SDS011;11962;50.838;4.430;2023-04-24T00:17:45;19.38;;;11.85;;
23567;SDS011;11962;50.838;4.430;2023-04-24T00:20:11;21.60;;;12.20;;
23567;SDS011;11962;50.838;4.430;2023-04-24T00:22:36;23.33;;;12.02;;
23567;SDS011;11962;50.838;4.430;2023-04-24T00:25:02;18.83;;;11.38;;
23567;SDS011;11962;50.838;4.430;2023-04-24T00:27:28;20.15;;;11.68;;
23567;SDS011;11962;50.838;4.430;2023-04-24T00:29:55;22.98;;;11.90;;
23567;SDS011;11962;50.838;4.430;2023-04-24T00:32:20;25.63;;;11.98;;
23567;SDS011;11962;50.838;4.430;2023-04-24T00:34:46;21.15;;;12.30;;
23567;SDS011;11962;50.838;4.430;2023-04-24T00:37:12;19.75;;;11.80;;
23567;SDS011;11962;50.838;4.430;2023-04-24T00:39:38;21.42;;;11.93;;
23567;SDS011;11962;50.838;4.430;2023-04-24T00:42:04;21.42;;;11.43;;
23567;SDS011;11962;50.838;4.430;2023-04-24T00:44:31;20.98;;;11.98;;
23567;SDS011;11962;50.838;4.430;2023-04-24T00:46:59;20.88;;;12.27;;
23567;SDS011;11962;50.838;4.430;2023-04-24T00:49:25;18.98;;;11.55;;
23567;SDS011;11962;50.838;4.430;2023-04-24T00:51:52;20.63;;;11.85;;
23567;SDS011;11962;50.838;4.430;2023-04-24T00:54:19;20.48;;;11.73;;
23567;SDS011;11962;50.838;4.430;2023-04-24T00:56:45;25.75;;;11.90;;
23567;SDS011;11962;50.838;4.430;2023-04-24T00:59:11;23.58;;;12.02;;
23567;SDS011;11962;50.838;4.430;2023-04-24T01:01:38;23.77;;;12.35;;
23567;SDS011;11962;50.838;4.430;2023-04-24T01:04:08;19.63;;;11.77;;
23567;SDS011;11962;50.838;4.430;2023-04-24T01:06:36;21.80;;;11.88;;
23567;SDS011;11962;50.838;4.430;2023-04-24T01:11:30;18.23;;;11.65;;
23567;SDS011;11962;50.838;4.430;2023-04-24T01:13:56;21.38;;;12.80;;
23567;SDS011;11962;50.838;4.430;2023-04-24T01:16:22;21.27;;;12.35;;
23567;SDS011;11962;50.838;4.430;2023-04-24T01:18:48;23.92;;;12.85;;
23567;SDS011;11962;50.838;4.430;2023-04-24T01:21:15;21.50;;;12.57;;
23567;SDS011;11962;50.838;4.430;2023-04-24T01:23:42;22.17;;;11.15;;
23567;SDS011;11962;50.838;4.430;2023-04-24T01:26:09;20.27;;;11.15;;
23567;SDS011;11962;50.838;4.430;2023-04-24T01:28:35;17.08;;;10.75;;
23567;SDS011;11962;50.838;4.430;2023-04-24T01:31:00;22.65;;;11.60;;
23567;SDS011;11962;50.838;4.430;2023-04-24T01:33:26;15.23;;;11.25;;
23567;SDS011;11962;50.838;4.430;2023-04-24T01:35:52;16.80;;;10.77;;
23567;SDS011;11962;50.838;4.430;2023-04-24T01:38:18;17.75;;;11.02;;
23567;SDS011;11962;50.838;4.430;2023-04-24T01:40:44;14.95;;;9.95;;
23567;SDS011;11962;50.838;4.430;2023-04-24T01:43:10;18.42;;;10.15;;
23567;SDS011;11962;50.838;4.430;2023-04-24T01:45:37;16.05;;;10.27;;
23567;SDS011;11962;50.838;4.430;2023-04-24T01:48:02;16.73;;;10.00;;
23567;SDS011;11962;50.838;4.430;2023-04-24T01:50:28;14.60;;;9.77;;
23567;SDS011;11962;50.838;4.430;2023-04-24T01:52:55;15.10;;;10.15;;
23567;SDS011;11962;50.838;4.430;2023-04-24T01:55:21;15.73;;;10.63;;
23567;SDS011;11962;50.838;4.430;2023-04-24T01:57:47;15.98;;;11.13;;
23567;SDS011;11962;50.838;4.430;2023-04-24T02:00:13;16.55;;;11.68;;
23567;SDS011;11962;50.838;4.430;2023-04-24T02:02:40;22.80;;;12.07;;
23567;SDS011;11962;50.838;4.430;2023-04-24T02:05:06;20.95;;;11.88;;
23567;SDS011;11962;50.838;4.430;2023-04-24T02:07:33;15.05;;;11.07;;
23567;SDS011;11962;50.838;4.430;2023-04-24T02:09:59;16.38;;;11.50;;
23567;SDS011;11962;50.838;4.430;2023-04-24T02:12:25;16.67;;;11.55;;
23567;SDS011;11962;50.838;4.430;2023-04-24T02:14:50;22.05;;;12.73;;
23567;SDS011;11962;50.838;4.430;2023-04-24T02:17:16;19.00;;;12.13;;
23567;SDS011;11962;50.838;4.430;2023-04-24T02:19:44;21.30;;;12.82;;
23567;SDS011;11962;50.838;4.430;2023-04-24T02:22:10;19.67;;;13.05;;
23567;SDS011;11962;50.838;4.430;2023-04-24T02:24:36;22.15;;;13.00;;
23567;SDS011;11962;50.838;4.430;2023-04-24T02:27:02;22.58;;;12.35;;
23567;SDS011;11962;50.838;4.430;2023-04-24T02:29:28;20.15;;;13.48;;
23567;SDS011;11962;50.838;4.430;2023-04-24T02:31:54;18.08;;;12.48;;
23567;SDS011;11962;50.838;4.430;2023-04-24T02:34:20;20.85;;;12.50;;
23567;SDS011;11962;50.838;4.430;2023-04-24T02:36:46;18.35;;;11.88;;
23567;SDS011;11962;50.838;4.430;2023-04-24T02:39:11;25.02;;;12.80;;
23567;SDS011;11962;50.838;4.430;2023-04-24T02:41:38;20.73;;;12.38;;
23567;SDS011;11962;50.838;4.430;2023-04-24T02:44:04;18.80;;;11.80;;
23567;SDS011;11962;50.838;4.430;2023-04-24T02:46:29;19.05;;;11.93;;
23567;SDS011;11962;50.838;4.430;2023-04-24T02:48:55;16.45;;;11.63;;
23567;SDS011;11962;50.838;4.430;2023-04-24T02:51:21;18.60;;;11.73;;
23567;SDS011;11962;50.838;4.430;2023-04-24T02:53:47;23.00;;;13.13;;
23567;SDS011;11962;50.838;4.430;2023-04-24T02:56:14;19.85;;;11.73;;
23567;SDS011;11962;50.838;4.430;2023-04-24T02:58:40;17.77;;;11.63;;
23567;SDS011;11962;50.838;4.430;2023-04-24T03:01:07;24.38;;;12.07;;
23567;SDS011;11962;50.838;4.430;2023-04-24T03:03:35;19.23;;;11.37;;
23567;SDS011;11962;50.838;4.430;2023-04-24T03:06:01;16.58;;;10.88;;
23567;SDS011;11962;50.838;4.430;2023-04-24T03:08:27;19.30;;;11.20;;
23567;SDS011;11962;50.838;4.430;2023-04-24T03:10:52;18.60;;;10.50;;
23567;SDS011;11962;50.838;4.430;2023-04-24T03:13:18;16.33;;;10.25;;
23567;SDS011;11962;50.838;4.430;2023-04-24T03:15:44;18.42;;;9.68;;
23567;SDS011;11962;50.838;4.430;2023-04-24T03:18:11;15.77;;;9.70;;
23567;SDS011;11962;50.838;4.430;2023-04-24T03:20:37;16.63;;;9.02;;
23567;SDS011;11962;50.838;4.430;2023-04-24T03:23:03;16.13;;;8.82;;
23567;SDS011;11962;50.838;4.430;2023-04-24T03:25:29;13.57;;;8.85;;
23567;SDS011;11962;50.838;4.430;2023-04-24T03:27:55;17.42;;;8.73;;
23567;SDS011;11962;50.838;4.430;2023-04-24T03:30:20;13.07;;;8.75;;
23567;SDS011;11962;50.838;4.430;2023-04-24T03:32:46;16.10;;;8.88;;
23567;SDS011;11962;50.838;4.430;2023-04-24T03:35:12;17.23;;;9.35;;
23567;SDS011;11962;50.838;4.430;2023-04-24T03:37:38;16.50;;;9.75;;
23567;SDS011;11962;50.838;4.430;2023-04-24T03:40:04;16.42;;;9.40;;
23567;SDS011;11962;50.838;4.430;2023-04-24T03:42:32;16.83;;;9.20;;
23567;SDS011;11962;50.838;4.430;2023-04-24T03:44:57;13.95;;;8.60;;
23567;SDS011;11962;50.838;4.430;2023-04-24T03:47:23;19.67;;;8.60;;
23567;SDS011;11962;50.838;4.430;2023-04-24T03:49:49;15.48;;;8.50;;
23567;SDS011;11962;50.838;4.430;2023-04-24T03:52:15;13.57;;;8.93;;
23567;SDS011;11962;50.838;4.430;2023-04-24T03:54:40;13.30;;;8.93;;
23567;SDS011;11962;50.838;4.430;2023-04-24T03:57:06;11.18;;;7.15;;
23567;SDS011;11962;50.838;4.430;2023-04-24T03:59:32;13.55;;;8.40;;
23567;SDS011;11962;50.838;4.430;2023-04-24T04:01:58;11.77;;;7.80;;
23567;SDS011;11962;50.838;4.430;2023-04-24T04:04:23;11.57;;;7.43;;
23567;SDS011;11962;50.838;4.430;2023-04-24T04:06:49;14.02;;;7.97;;
23567;SDS011;11962;50.838;4.430;2023-04-24T04:09:16;11.88;;;7.60;;
23567;SDS011;11962;50.838;4.430;2023-04-24T04:11:41;11.50;;;7.57;;
23567;SDS011;11962;50.838;4.430;2023-04-24T04:14:07;11.15;;;6.93;;
23567;SDS011;11962;50.838;4.430;2023-04-24T04:16:33;8.68;;;6.30;;
23567;SDS011;11962;50.838;4.430;2023-04-24T04:18:59;9.43;;;6.40;;
23567;SDS011;11962;50.838;4.430;2023-04-24T04:21:24;11.93;;;7.00;;
23567;SDS011;11962;50.838;4.430;2023-04-24T04:23:51;9.10;;;6.80;;
23567;SDS011;11962;50.838;4.430;2023-04-24T04:26:17;9.15;;;6.28;;
23567;SDS011;11962;50.838;4.430;2023-04-24T04:28:44;9.82;;;5.68;;
23567;SDS011;11962;50.838;4.430;2023-04-24T04:31:09;10.98;;;6.28;;
23567;SDS011;11962;50.838;4.430;2023-04-24T04:33:35;8.10;;;5.65;;
23567;SDS011;11962;50.838;4.430;2023-04-24T04:36:03;10.10;;;5.82;;
23567;SDS011;11962;50.838;4.430;2023-04-24T04:38:29;6.70;;;5.47;;
23567;SDS011;11962;50.838;4.430;2023-04-24T04:40:55;7.90;;;5.63;;
23567;SDS011;11962;50.838;4.430;2023-04-24T04:43:24;8.30;;;5.95;;
23567;SDS011;11962;50.838;4.430;2023-04-24T04:45:50;6.40;;;5.13;;
23567;SDS011;11962;50.838;4.430;2023-04-24T04:48:17;7.93;;;5.60;;
23567;SDS011;11962;50.838;4.430;2023-04-24T04:50:43;7.85;;;5.47;;
23567;SDS011;11962;50.838;4.430;2023-04-24T04:53:09;9.57;;;5.88;;
23567;SDS011;11962;50.838;4.430;2023-04-24T04:55:35;7.75;;;5.63;;
23567;SDS011;11962;50.838;4.430;2023-04-24T04:58:02;10.52;;;6.72;;
23567;SDS011;11962;50.838;4.430;2023-04-24T05:00:28;11.18;;;6.53;;
23567;SDS011;11962;50.838;4.430;2023-04-24T05:02:58;13.40;;;7.53;;
23567;SDS011;11962;50.838;4.430;2023-04-24T05:05:25;12.07;;;7.30;;
23567;SDS011;11962;50.838;4.430;2023-04-24T05:07:50;13.20;;;8.20;;
23567;SDS011;11962;50.838;4.430;2023-04-24T05:10:16;13.85;;;8.73;;
23567;SDS011;11962;50.838;4.430;2023-04-24T05:12:42;16.70;;;9.20;;
23567;SDS011;11962;50.838;4.430;2023-04-24T05:15:08;16.75;;;9.73;;
23567;SDS011;11962;50.838;4.430;2023-04-24T05:17:35;20.92;;;10.05;;
23567;SDS011;11962;50.838;4.430;2023-04-24T05:20:02;17.20;;;9.43;;
23567;SDS011;11962;50.838;4.430;2023-04-24T05:22:30;17.73;;;9.00;;
23567;SDS011;11962;50.838;4.430;2023-04-24T05:24:56;17.50;;;9.40;;
23567;SDS011;11962;50.838;4.430;2023-04-24T05:27:22;17.23;;;8.85;;
23567;SDS011;11962;50.838;4.430;2023-04-24T05:29:48;18.35;;;10.25;;
23567;SDS011;11962;50.838;4.430;2023-04-24T05:32:14;15.13;;;9.48;;
23567;SDS011;11962;50.838;4.430;2023-04-24T05:34:40;16.40;;;10.35;;
23567;SDS011;11962;50.838;4.430;2023-04-24T05:37:05;17.27;;;9.25;;
23567;SDS011;11962;50.838;4.430;2023-04-24T05:39:34;14.32;;;9.18;;
23567;SDS011;11962;50.838;4.430;2023-04-24T05:42:00;15.77;;;9.55;;
23567;SDS011;11962;50.838;4.430;2023-04-24T05:44:26;18.10;;;10.32;;
23567;SDS011;11962;50.838;4.430;2023-04-24T05:46:52;16.92;;;9.85;;
23567;SDS011;11962;50.838;4.430;2023-04-24T05:49:20;19.65;;;10.85;;
23567;SDS011;11962;50.838;4.430;2023-04-24T05:51:45;17.90;;;10.60;;
23567;SDS011;11962;50.838;4.430;2023-04-24T05:54:11;15.18;;;9.70;;
23567;SDS011;11962;50.838;4.430;2023-04-24T05:56:37;15.93;;;10.10;;
23567;SDS011;11962;50.838;4.430;2023-04-24T05:59:03;15.60;;;9.65;;
23567;SDS011;11962;50.838;4.430;2023-04-24T06:01:29;16.42;;;10.15;;
23567;SDS011;11962;50.838;4.430;2023-04-24T06:03:56;18.60;;;10.77;;
23567;SDS011;11962;50.838;4.430;2023-04-24T06:06:23;15.65;;;9.95;;
23567;SDS011;11962;50.838;4.430;2023-04-24T06:08:49;22.10;;;9.98;;
23567;SDS011;11962;50.838;4.430;2023-04-24T06:11:15;20.23;;;11.00;;
23567;SDS011;11962;50.838;4.430;2023-04-24T06:13:41;18.63;;;11.00;;
23567;SDS011;11962;50.838;4.430;2023-04-24T06:16:07;16.27;;;9.52;;
23567;SDS011;11962;50.838;4.430;2023-04-24T06:18:32;22.58;;;11.63;;
23567;SDS011;11962;50.838;4.430;2023-04-24T06:20:58;24.63;;;10.95;;
23567;SDS011;11962;50.838;4.430;2023-04-24T06:23:24;22.75;;;10.93;;
23567;SDS011;11962;50.838;4.430;2023-04-24T06:25:50;18.63;;;10.85;;
23567;SDS011;11962;50.838;4.430;2023-04-24T06:28:16;20.83;;;10.55;;
23567;SDS011;11962;50.838;4.430;2023-04-24T06:30:42;20.15;;;11.48;;
23567;SDS011;11962;50.838;4.430;2023-04-24T06:33:08;21.38;;;11.00;;
23567;SDS011;11962;50.838;4.430;2023-04-24T06:35:35;21.15;;;11.55;;
23567;SDS011;11962;50.838;4.430;2023-04-24T06:38:03;21.05;;;11.68;;
23567;SDS011;11962;50.838;4.430;2023-04-24T06:40:29;22.30;;;12.45;;
23567;SDS011;11962;50.838;4.430;2023-04-24T06:42:55;23.42;;;12.38;;
23567;SDS011;11962;50.838;4.430;2023-04-24T06:45:20;22.42;;;12.35;;
23567;SDS011;11962;50.838;4.430;2023-04-24T06:47:46;24.58;;;12.82;;
23567;SDS011;11962;50.838;4.430;2023-04-24T06:50:12;21.25;;;12.13;;
23567;SDS011;11962;50.838;4.430;2023-04-24T06:52:38;22.02;;;12.25;;
23567;SDS011;11962;50.838;4.430;2023-04-24T06:55:04;24.58;;;12.73;;
23567;SDS011;11962;50.838;4.430;2023-04-24T06:57:30;21.48;;;12.82;;
23567;SDS011;11962;50.838;4.430;2023-04-24T06:59:56;25.67;;;13.52;;
23567;SDS011;11962;50.838;4.430;2023-04-24T07:02:22;24.25;;;13.98;;
23567;SDS011;11962;50.838;4.430;2023-04-24T07:04:48;25.02;;;12.85;;
23567;SDS011;11962;50.838;4.430;2023-04-24T07:07:14;30.02;;;13.85;;
23567;SDS011;11962;50.838;4.430;2023-04-24T07:09:40;21.63;;;13.35;;
23567;SDS011;11962;50.838;4.430;2023-04-24T07:12:07;26.25;;;14.32;;
23567;SDS011;11962;50.838;4.430;2023-04-24T07:14:35;26.75;;;14.55;;
23567;SDS011;11962;50.838;4.430;2023-04-24T07:17:02;27.13;;;13.38;;
23567;SDS011;11962;50.838;4.430;2023-04-24T07:19:29;22.45;;;12.38;;
23567;SDS011;11962;50.838;4.430;2023-04-24T07:21:54;23.20;;;12.88;;
23567;SDS011;11962;50.838;4.430;2023-04-24T07:24:20;20.83;;;12.65;;
23567;SDS011;11962;50.838;4.430;2023-04-24T07:26:46;22.77;;;11.90;;
23567;SDS011;11962;50.838;4.430;2023-04-24T07:29:12;13.77;;;10.50;;
23567;SDS011;11962;50.838;4.430;2023-04-24T07:31:39;20.73;;;10.07;;
23567;SDS011;11962;50.838;4.430;2023-04-24T07:34:06;16.98;;;9.52;;
23567;SDS011;11962;50.838;4.430;2023-04-24T07:36:31;15.93;;;9.60;;
23567;SDS011;11962;50.838;4.430;2023-04-24T07:38:57;17.58;;;8.65;;
23567;SDS011;11962;50.838;4.430;2023-04-24T07:41:23;13.68;;;7.95;;
23567;SDS011;11962;50.838;4.430;2023-04-24T07:43:50;18.27;;;8.35;;
23567;SDS011;11962;50.838;4.430;2023-04-24T07:46:16;15.48;;;7.18;;
23567;SDS011;11962;50.838;4.430;2023-04-24T07:48:42;9.25;;;6.20;;
23567;SDS011;11962;50.838;4.430;2023-04-24T07:51:07;10.93;;;6.20;;
23567;SDS011;11962;50.838;4.430;2023-04-24T07:53:36;16.17;;;7.75;;
23567;SDS011;11962;50.838;4.430;2023-04-24T07:56:01;17.55;;;8.60;;
23567;SDS011;11962;50.838;4.430;2023-04-24T07:58:27;23.17;;;9.32;;
23567;SDS011;11962;50.838;4.430;2023-04-24T08:00:53;20.05;;;9.98;;
23567;SDS011;11962;50.838;4.430;2023-04-24T08:03:18;17.60;;;9.88;;
23567;SDS011;11962;50.838;4.430;2023-04-24T08:05:45;19.30;;;9.93;;
23567;SDS011;11962;50.838;4.430;2023-04-24T08:08:11;16.38;;;8.50;;
23567;SDS011;11962;50.838;4.430;2023-04-24T08:10:36;19.63;;;8.18;;
23567;SDS011;11962;50.838;4.430;2023-04-24T08:13:02;17.92;;;8.68;;
23567;SDS011;11962;50.838;4.430;2023-04-24T08:15:28;15.85;;;8.90;;
23567;SDS011;11962;50.838;4.430;2023-04-24T08:17:54;15.52;;;8.13;;
23567;SDS011;11962;50.838;4.430;2023-04-24T08:20:20;16.38;;;8.32;;
23567;SDS011;11962;50.838;4.430;2023-04-24T08:22:46;14.98;;;7.30;;
23567;SDS011;11962;50.838;4.430;2023-04-24T08:25:13;15.67;;;7.60;;
23567;SDS011;11962;50.838;4.430;2023-04-24T08:27:39;19.58;;;6.57;;
23567;SDS011;11962;50.838;4.430;2023-04-24T08:30:05;16.90;;;7.00;;
23567;SDS011;11962;50.838;4.430;2023-04-24T08:32:34;15.90;;;5.90;;
23567;SDS011;11962;50.838;4.430;2023-04-24T08:35:01;14.02;;;6.15;;
23567;SDS011;11962;50.838;4.430;2023-04-24T08:37:27;11.93;;;6.47;;
23567;SDS011;11962;50.838;4.430;2023-04-24T08:39:53;13.55;;;5.65;;
23567;SDS011;11962;50.838;4.430;2023-04-24T08:42:19;15.77;;;6.10;;
23567;SDS011;11962;50.838;4.430;2023-04-24T08:44:46;14.50;;;5.82;;
23567;SDS011;11962;50.838;4.430;2023-04-24T08:47:13;13.60;;;6.28;;
23567;SDS011;11962;50.838;4.430;2023-04-24T08:49:40;14.90;;;5.20;;
23567;SDS011;11962;50.838;4.430;2023-04-24T08:52:07;15.00;;;5.57;;
23567;SDS011;11962;50.838;4.430;2023-04-24T08:54:34;13.75;;;4.90;;
23567;SDS011;11962;50.838;4.430;2023-04-24T08:57:01;12.50;;;4.90;;
23567;SDS011;11962;50.838;4.430;2023-04-24T08:59:28;11.55;;;4.30;;
23567;SDS011;11962;50.838;4.430;2023-04-24T09:01:55;10.27;;;4.55;;
23567;SDS011;11962;50.838;4.430;2023-04-24T09:04:22;11.63;;;4.10;;
23567;SDS011;11962;50.838;4.430;2023-04-24T09:06:58;12.13;;;4.10;;
23567;SDS011;11962;50.838;4.430;2023-04-24T09:09:25;6.55;;;3.60;;
23567;SDS011;11962;50.838;4.430;2023-04-24T09:11:54;8.30;;;4.05;;
23567;SDS011;11962;50.838;4.430;2023-04-24T09:14:20;8.77;;;3.20;;
23567;SDS011;11962;50.838;4.430;2023-04-24T09:16:48;8.98;;;3.40;;
23567;SDS011;11962;50.838;4.430;2023-04-24T09:19:14;6.88;;;3.38;;
23567;SDS011;11962;50.838;4.430;2023-04-24T09:21:39;6.97;;;3.15;;
23567;SDS011;11962;50.838;4.430;2023-04-24T09:24:14;8.82;;;3.75;;
23567;SDS011;11962;50.838;4.430;2023-04-24T09:26:47;7.50;;;3.28;;
23567;SDS011;11962;50.838;4.430;2023-04-24T09:29:16;6.80;;;3.13;;
23567;SDS011;11962;50.838;4.430;2023-04-24T09:31:43;8.52;;;3.42;;
23567;SDS011;11962;50.838;4.430;2023-04-24T09:34:09;7.78;;;3.35;;
23567;SDS011;11962;50.838;4.430;2023-04-24T09:36:39;10.93;;;3.20;;
23567;SDS011;11962;50.838;4.430;2023-04-24T09:39:07;7.00;;;3.33;;
23567;SDS011;11962;50.838;4.430;2023-04-24T09:44:20;11.93;;;3.80;;
23567;SDS011;11962;50.838;4.430;2023-04-24T09:46:54;9.77;;;3.75;;
23567;SDS011;11962;50.838;4.430;2023-04-24T09:52:03;9.68;;;3.85;;
23567;SDS011;11962;50.838;4.430;2023-04-24T09:54:29;5.55;;;3.10;;
23567;SDS011;11962;50.838;4.430;2023-04-24T09:56:56;6.32;;;3.28;;
23567;SDS011;11962;50.838;4.430;2023-04-24T09:59:22;7.45;;;2.90;;
23567;SDS011;11962;50.838;4.430;2023-04-24T10:01:48;7.75;;;2.97;;
23567;SDS011;11962;50.838;4.430;2023-04-24T10:04:15;9.02;;;3.72;;
23567;SDS011;11962;50.838;4.430;2023-04-24T10:06:49;7.32;;;3.53;;
23567;SDS011;11962;50.838;4.430;2023-04-24T10:09:17;8.50;;;3.67;;
23567;SDS011;11962;50.838;4.430;2023-04-24T10:11:44;10.63;;;3.70;;
23567;SDS011;11962;50.838;4.430;2023-04-24T10:14:13;8.75;;;3.60;;
23567;SDS011;11962;50.838;4.430;2023-04-24T10:16:40;7.93;;;3.60;;
23567;SDS011;11962;50.838;4.430;2023-04-24T10:19:06;8.25;;;3.30;;
23567;SDS011;11962;50.838;4.430;2023-04-24T10:21:32;7.88;;;3.80;;
23567;SDS011;11962;50.838;4.430;2023-04-24T10:24:00;6.60;;;2.78;;
23567;SDS011;11962;50.838;4.430;2023-04-24T10:26:28;8.63;;;3.50;;
23567;SDS011;11962;50.838;4.430;2023-04-24T10:28:54;11.45;;;3.53;;
23567;SDS011;11962;50.838;4.430;2023-04-24T10:31:22;9.02;;;3.50;;
23567;SDS011;11962;50.838;4.430;2023-04-24T10:33:48;8.68;;;3.88;;
23567;SDS011;11962;50.838;4.430;2023-04-24T10:36:16;6.82;;;3.42;;
23567;SDS011;11962;50.838;4.430;2023-04-24T10:38:43;10.00;;;3.92;;
23567;SDS011;11962;50.838;4.430;2023-04-24T10:41:12;8.88;;;3.78;;
23567;SDS011;11962;50.838;4.430;2023-04-24T10:43:44;12.93;;;4.63;;
23567;SDS011;11962;50.838;4.430;2023-04-24T10:46:11;5.97;;;3.90;;
23567;SDS011;11962;50.838;4.430;2023-04-24T10:48:47;9.77;;;4.15;;
23567;SDS011;11962;50.838;4.430;2023-04-24T10:51:21;7.80;;;3.47;;
23567;SDS011;11962;50.838;4.430;2023-04-24T10:53:49;11.20;;;3.65;;
23567;SDS011;11962;50.838;4.430;2023-04-24T10:56:16;5.50;;;3.70;;
23567;SDS011;11962;50.838;4.430;2023-04-24T10:58:50;10.48;;;3.95;;
23567;SDS011;11962;50.838;4.430;2023-04-24T11:01:27;10.15;;;3.67;;
23567;SDS011;11962;50.838;4.430;2023-04-24T11:03:58;14.48;;;4.05;;
23567;SDS011;11962;50.838;4.430;2023-04-24T11:06:36;7.05;;;3.40;;
23567;SDS011;11962;50.838;4.430;2023-04-24T11:09:09;10.45;;;4.70;;
23567;SDS011;11962;50.838;4.430;2023-04-24T11:11:38;7.38;;;3.83;;
23567;SDS011;11962;50.838;4.430;2023-04-24T11:14:09;9.63;;;4.15;;
23567;SDS011;11962;50.838;4.430;2023-04-24T11:16:38;14.55;;;5.00;;
23567;SDS011;11962;50.838;4.430;2023-04-24T11:21:48;8.80;;;4.22;;
23567;SDS011;11962;50.838;4.430;2023-04-24T11:29:41;7.78;;;4.25;;
23567;SDS011;11962;50.838;4.430;2023-04-24T11:32:17;8.87;;;3.90;;
23567;SDS011;11962;50.838;4.430;2023-04-24T11:34:59;8.02;;;3.88;;
23567;SDS011;11962;50.838;4.430;2023-04-24T11:37:28;9.18;;;4.30;;
23567;SDS011;11962;50.838;4.430;2023-04-24T11:40:02;6.32;;;3.50;;
23567;SDS011;11962;50.838;4.430;2023-04-24T11:42:36;8.65;;;3.72;;
23567;SDS011;11962;50.838;4.430;2023-04-24T11:45:13;7.22;;;3.55;;
23567;SDS011;11962;50.838;4.430;2023-04-24T11:47:50;7.93;;;4.63;;
23567;SDS011;11962;50.838;4.430;2023-04-24T11:50:18;8.35;;;4.57;;
23567;SDS011;11962;50.838;4.430;2023-04-24T11:52:47;6.90;;;4.95;;
23567;SDS011;11962;50.838;4.430;2023-04-24T11:57:47;9.57;;;4.38;;
23567;SDS011;11962;50.838;4.430;2023-04-24T12:00:31;6.63;;;4.47;;
23567;SDS011;11962;50.838;4.430;2023-04-24T12:03:07;7.28;;;4.53;;
23567;SDS011;11962;50.838;4.430;2023-04-24T12:05:36;5.30;;;4.20;;
23567;SDS011;11962;50.838;4.430;2023-04-24T12:08:03;6.90;;;4.10;;
23567;SDS011;11962;50.838;4.430;2023-04-24T12:10:30;6.95;;;4.20;;
23567;SDS011;11962;50.838;4.430;2023-04-24T12:12:58;7.33;;;4.00;;
23567;SDS011;11962;50.838;4.430;2023-04-24T12:15:25;9.73;;;4.60;;
23567;SDS011;11962;50.838;4.430;2023-04-24T12:17:51;10.48;;;4.40;;
23567;SDS011;11962;50.838;4.430;2023-04-24T12:20:23;9.77;;;5.03;;
23567;SDS011;11962;50.838;4.430;2023-04-24T12:22:55;11.02;;;4.68;;
23567;SDS011;11962;50.838;4.430;2023-04-24T12:25:25;9.70;;;4.70;;
23567;SDS011;11962;50.838;4.430;2023-04-24T12:28:08;7.28;;;4.60;;
23567;SDS011;11962;50.838;4.430;2023-04-24T12:30:43;11.13;;;4.85;;
23567;SDS011;11962;50.838;4.430;2023-04-24T12:33:16;6.90;;;4.25;;
23567;SDS011;11962;50.838;4.430;2023-04-24T12:35:46;5.13;;;4.05;;
23567;SDS011;11962;50.838;4.430;2023-04-24T12:38:13;6.85;;;3.88;;
23567;SDS011;11962;50.838;4.430;2023-04-24T12:40:40;5.72;;;4.00;;
23567;SDS011;11962;50.838;4.430;2023-04-24T12:43:18;6.45;;;4.00;;
23567;SDS011;11962;50.838;4.430;2023-04-24T12:45:45;8.80;;;3.83;;
23567;SDS011;11962;50.838;4.430;2023-04-24T12:48:12;7.70;;;3.97;;
23567;SDS011;11962;50.838;4.430;2023-04-24T12:50:42;8.50;;;3.75;;
23567;SDS011;11962;50.838;4.430;2023-04-24T12:53:08;5.90;;;3.35;;
23567;SDS011;11962;50.838;4.430;2023-04-24T12:55:34;4.25;;;3.20;;
23567;SDS011;11962;50.838;4.430;2023-04-24T12:58:00;4.78;;;3.10;;
23567;SDS011;11962;50.838;4.430;2023-04-24T13:00:28;8.88;;;3.90;;
23567;SDS011;11962;50.838;4.430;2023-04-24T13:02:54;6.88;;;3.35;;
23567;SDS011;11962;50.838;4.430;2023-04-24T13:05:20;6.55;;;3.70;;
23567;SDS011;11962;50.838;4.430;2023-04-24T13:07:45;7.70;;;3.28;;
23567;SDS011;11962;50.838;4.430;2023-04-24T13:10:11;5.18;;;3.05;;
23567;SDS011;11962;50.838;4.430;2023-04-24T13:12:38;5.32;;;3.70;;
23567;SDS011;11962;50.838;4.430;2023-04-24T13:15:05;6.38;;;3.30;;
23567;SDS011;11962;50.838;4.430;2023-04-24T13:17:31;8.73;;;3.72;;
23567;SDS011;11962;50.838;4.430;2023-04-24T13:19:58;6.45;;;2.70;;
23567;SDS011;11962;50.838;4.430;2023-04-24T13:22:24;5.60;;;3.55;;
23567;SDS011;11962;50.838;4.430;2023-04-24T13:24:50;7.53;;;3.53;;
23567;SDS011;11962;50.838;4.430;2023-04-24T13:27:16;5.22;;;2.97;;
23567;SDS011;11962;50.838;4.430;2023-04-24T13:29:43;5.35;;;3.25;;
23567;SDS011;11962;50.838;4.430;2023-04-24T13:32:09;6.70;;;2.85;;
23567;SDS011;11962;50.838;4.430;2023-04-24T13:34:35;7.85;;;3.40;;
23567;SDS011;11962;50.838;4.430;2023-04-24T13:37:02;6.38;;;2.40;;
23567;SDS011;11962;50.838;4.430;2023-04-24T13:39:30;6.05;;;2.42;;
23567;SDS011;11962;50.838;4.430;2023-04-24T13:41:57;6.75;;;2.80;;
23567;SDS011;11962;50.838;4.430;2023-04-24T13:44:23;3.58;;;2.33;;
23567;SDS011;11962;50.838;4.430;2023-04-24T13:46:50;6.82;;;2.35;;
23567;SDS011;11962;50.838;4.430;2023-04-24T13:49:19;6.13;;;2.90;;
23567;SDS011;11962;50.838;4.430;2023-04-24T13:51:45;5.82;;;2.80;;
23567;SDS011;11962;50.838;4.430;2023-04-24T13:54:11;11.52;;;2.65;;
23567;SDS011;11962;50.838;4.430;2023-04-24T13:56:40;7.82;;;2.80;;
23567;SDS011;11962;50.838;4.430;2023-04-24T13:59:06;6.93;;;2.90;;
23567;SDS011;11962;50.838;4.430;2023-04-24T14:01:32;6.63;;;2.70;;
23567;SDS011;11962;50.838;4.430;2023-04-24T14:03:58;7.07;;;2.60;;
23567;SDS011;11962;50.838;4.430;2023-04-24T14:06:24;4.38;;;2.33;;
23567;SDS011;11962;50.838;4.430;2023-04-24T14:08:51;5.13;;;2.28;;
23567;SDS011;11962;50.838;4.430;2023-04-24T14:11:17;6.93;;;2.13;;
23567;SDS011;11962;50.838;4.430;2023-04-24T14:13:44;4.82;;;2.17;;
23567;SDS011;11962;50.838;4.430;2023-04-24T14:16:10;4.93;;;2.25;;
23567;SDS011;11962;50.838;4.430;2023-04-24T14:18:36;6.40;;;2.25;;
23567;SDS011;11962;50.838;4.430;2023-04-24T14:21:02;7.65;;;1.85;;
23567;SDS011;11962;50.838;4.430;2023-04-24T14:23:29;4.13;;;2.10;;
23567;SDS011;11962;50.838;4.430;2023-04-24T14:25:55;5.18;;;1.90;;
23567;SDS011;11962;50.838;4.430;2023-04-24T14:28:22;4.07;;;1.70;;
23567;SDS011;11962;50.838;4.430;2023-04-24T14:30:48;4.68;;;2.00;;
23567;SDS011;11962;50.838;4.430;2023-04-24T14:33:14;4.65;;;1.80;;
23567;SDS011;11962;50.838;4.430;2023-04-24T14:35:40;3.55;;;1.80;;
23567;SDS011;11962;50.838;4.430;2023-04-24T14:38:09;3.35;;;1.75;;
23567;SDS011;11962;50.838;4.430;2023-04-24T14:40:35;4.28;;;1.90;;
23567;SDS011;11962;50.838;4.430;2023-04-24T14:43:02;4.25;;;1.63;;
23567;SDS011;11962;50.838;4.430;2023-04-24T14:45:28;5.45;;;1.83;;
23567;SDS011;11962;50.838;4.430;2023-04-24T14:47:54;4.60;;;1.90;;
23567;SDS011;11962;50.838;4.430;2023-04-24T14:50:20;5.03;;;2.10;;
23567;SDS011;11962;50.838;4.430;2023-04-24T14:52:46;5.05;;;2.10;;